Time;durP1;ratioP1;P1;durP2;ratioP2;P2;SDS_P1;SDS_P2;PMS_P1;PMS_P2;Temp;Humidity;BMP_temperature;BMP_pressure;BME280_temperature;BME280_humidity;BME280_pressure;Samples;Min_cycle;Max_cycle;Signal;HPM_P1;HPM_P2
2021/06/15 00:01:40;;;;;;;4.07;2.83;;;;;;;;;;5074890;28;20020;-63
2021/06/15 00:04:05;;;;;;;4.03;2.88;;;;;;;;;;5073929;28;20387;-63
2021/06/15 00:06:30;;;;;;;5.32;3.25;;;;;;;;;;5074913;28;20031;-64
2021/06/15 00:08:57;;;;;;;5.22;3.00;;;;;;;;;;5070875;28;20040;-63
2021/06/15 00:11:22;;;;;;;8.52;3.30;;;;;;;;;;5073202;28;20041;-63
2021/06/15 00:13:48;;;;;;;6.15;3.45;;;;;;;;;;5072912;28;20487;-63
2021/06/15 00:16:13;;;;;;;5.35;3.35;;;;;;;;;;5073598;28;20486;-63
2021/06/15 00:18:38;;;;;;;5.22;3.25;;;;;;;;;;5070413;28;20023;-64
2021/06/15 00:21:03;;;;;;;6.45;3.78;;;;;;;;;;5074292;28;20082;-64
2021/06/15 00:23:29;;;;;;;5.68;3.45;;;;;;;;;;5075009;28;20025;-63
2021/06/15 00:25:54;;;;;;;4.60;3.83;;;;;;;;;;5073060;28;20027;-64
2021/06/15 00:28:19;;;;;;;5.22;3.70;;;;;;;;;;5071648;28;20017;-64
2021/06/15 00:30:45;;;;;;;4.15;3.75;;;;;;;;;;5074150;28;20017;-64
2021/06/15 00:33:10;;;;;;;4.50;3.05;;;;;;;;;;5073491;28;20016;-63
2021/06/15 00:35:36;;;;;;;4.20;3.72;;;;;;;;;;5078911;28;20021;-64
2021/06/15 00:38:01;;;;;;;6.90;3.20;;;;;;;;;;5071852;28;20052;-63
2021/06/15 00:40:26;;;;;;;5.35;3.50;;;;;;;;;;5089951;28;20117;-63
2021/06/15 00:42:52;;;;;;;5.40;3.40;;;;;;;;;;5072533;28;20028;-64
2021/06/15 00:45:19;;;;;;;5.55;3.58;;;;;;;;;;5072616;28;20113;-64
2021/06/15 00:47:45;;;;;;;6.18;4.00;;;;;;;;;;5071129;28;20077;-63
2021/06/15 00:50:11;;;;;;;4.70;3.35;;;;;;;;;;5073459;28;20028;-64
2021/06/15 00:52:36;;;;;;;6.38;3.42;;;;;;;;;;5073465;28;20104;-63
2021/06/15 00:55:02;;;;;;;7.93;4.15;;;;;;;;;;5072924;28;20032;-64
2021/06/15 00:57:27;;;;;;;4.07;3.03;;;;;;;;;;5069509;28;20424;-64
2021/06/15 00:59:53;;;;;;;6.07;3.20;;;;;;;;;;5074010;28;20020;-63
2021/06/15 01:02:18;;;;;;;6.75;3.05;;;;;;;;;;5072566;28;20028;-64
2021/06/15 01:04:43;;;;;;;5.40;3.50;;;;;;;;;;5073260;28;20091;-64
2021/06/15 01:07:29;;;;;;;5.93;4.05;;;;;;;;;;5069659;28;20027;-63
2021/06/15 01:09:54;;;;;;;;;;;;;;;;;;5073965;28;20035;-63
2021/06/15 01:12:29;;;;;;;4.47;3.75;;;;;;;;;;5073252;28;19908;-64
2021/06/15 01:14:54;;;;;;;;;;;;;;;;;;5069321;28;20021;-63
2021/06/15 01:17:28;;;;;;;6.55;4.32;;;;;;;;;;5066198;28;19912;-63
2021/06/15 01:20:06;;;;;;;5.30;3.90;;;;;;;;;;5053684;28;20358;-63
2021/06/15 01:22:37;;;;;;;7.25;4.28;;;;;;;;;;5070136;28;20025;-64
2021/06/15 01:25:13;;;;;;;6.78;4.07;;;;;;;;;;5073396;28;20111;-64
2021/06/15 01:27:56;;;;;;;5.82;3.92;;;;;;;;;;5068906;28;20081;-64
2021/06/15 01:30:23;;;;;;;5.95;4.47;;;;;;;;;;5072110;28;20035;-64
2021/06/15 01:33:01;;;;;;;5.72;4.13;;;;;;;;;;5073098;28;20533;-64
2021/06/15 01:35:27;;;;;;;9.40;4.35;;;;;;;;;;5076119;28;20025;-64
2021/06/15 01:38:12;;;;;;;7.15;3.97;;;;;;;;;;5070080;28;20058;-64
2021/06/15 01:40:43;;;;;;;5.65;4.38;;;;;;;;;;5070762;28;20045;-64
2021/06/15 01:43:12;;;;;;;5.95;3.97;;;;;;;;;;5073394;28;20020;-64
2021/06/15 01:45:40;;;;;;;5.63;3.80;;;;;;;;;;5073241;28;20020;-64
2021/06/15 01:48:25;;;;;;;5.40;4.03;;;;;;;;;;5068681;28;20024;-64
2021/06/15 01:50:52;;;;;;;6.22;3.75;;;;;;;;;;5071149;28;20342;-64
2021/06/15 01:53:18;;;;;;;6.90;4.43;;;;;;;;;;5073163;28;20025;-64
2021/06/15 01:55:45;;;;;;;6.20;3.70;;;;;;;;;;5072840;28;20119;-64
2021/06/15 01:58:11;;;;;;;5.03;3.00;;;;;;;;;;5069979;28;20012;-64
2021/06/15 02:00:36;;;;;;;4.43;3.30;;;;;;;;;;5071251;28;20361;-64
2021/06/15 02:03:03;;;;;;;6.35;3.40;;;;;;;;;;5072298;28;20100;-64
2021/06/15 02:05:33;;;;;;;5.43;3.22;;;;;;;;;;5071549;28;20082;-64
2021/06/15 02:08:01;;;;;;;7.60;3.85;;;;;;;;;;5069674;28;20025;-64
2021/06/15 02:10:26;;;;;;;6.03;3.58;;;;;;;;;;5071646;28;20050;-64
2021/06/15 02:12:52;;;;;;;6.85;3.60;;;;;;;;;;5072505;28;20091;-64
2021/06/15 02:15:18;;;;;;;5.18;3.60;;;;;;;;;;5072462;28;20104;-64
2021/06/15 02:17:44;;;;;;;7.53;4.25;;;;;;;;;;5067958;28;20211;-64
2021/06/15 02:20:11;;;;;;;5.28;3.85;;;;;;;;;;5071923;28;20099;-64
2021/06/15 02:22:36;;;;;;;6.40;3.72;;;;;;;;;;5070972;28;20025;-64
2021/06/15 02:25:03;;;;;;;5.68;3.90;;;;;;;;;;5072567;28;20032;-64
2021/06/15 02:27:28;;;;;;;6.20;4.28;;;;;;;;;;5068392;28;20056;-64
2021/06/15 02:29:55;;;;;;;5.28;3.90;;;;;;;;;;5070755;28;20044;-64
2021/06/15 02:32:22;;;;;;;5.38;4.30;;;;;;;;;;5070796;28;20448;-64
2021/06/15 02:34:48;;;;;;;7.13;3.88;;;;;;;;;;5081187;28;20072;-64
2021/06/15 02:37:15;;;;;;;5.55;4.28;;;;;;;;;;5089735;28;20024;-65
2021/06/15 02:39:40;;;;;;;6.38;4.40;;;;;;;;;;5083276;28;20017;-64
2021/06/15 02:42:07;;;;;;;7.07;4.25;;;;;;;;;;5071803;28;20052;-64
2021/06/15 02:44:35;;;;;;;6.85;4.13;;;;;;;;;;5071911;28;20505;-64
2021/06/15 02:47:02;;;;;;;5.40;4.00;;;;;;;;;;5069082;28;20048;-64
2021/06/15 02:49:30;;;;;;;6.93;4.63;;;;;;;;;;5072196;28;20052;-64
2021/06/15 02:52:04;;;;;;;9.15;4.88;;;;;;;;;;5104374;28;20021;-64
2021/06/15 02:54:32;;;;;;;5.28;4.13;;;;;;;;;;5072106;28;20023;-64
2021/06/15 02:56:58;;;;;;;9.55;5.32;;;;;;;;;;5069266;28;20104;-64
2021/06/15 02:59:23;;;;;;;6.60;4.25;;;;;;;;;;5070531;28;20103;-64
2021/06/15 03:01:49;;;;;;;6.28;4.75;;;;;;;;;;5071334;28;20421;-64
2021/06/15 03:04:15;;;;;;;6.40;4.47;;;;;;;;;;5070806;28;20039;-64
2021/06/15 03:06:40;;;;;;;6.10;4.60;;;;;;;;;;5070834;28;20472;-64
2021/06/15 03:09:05;;;;;;;7.53;4.88;;;;;;;;;;5070079;28;20027;-64
2021/06/15 03:11:32;;;;;;;6.97;4.28;;;;;;;;;;5071394;28;20095;-64
2021/06/15 03:14:09;;;;;;;5.28;4.03;;;;;;;;;;5072619;28;20472;-64
2021/06/15 03:16:34;;;;;;;6.55;4.25;;;;;;;;;;5070976;28;20028;-64
2021/06/15 03:18:59;;;;;;;5.70;3.80;;;;;;;;;;5074172;28;20413;-64
2021/06/15 03:21:26;;;;;;;4.70;3.80;;;;;;;;;;5075653;28;20028;-64
2021/06/15 03:23:58;;;;;;;3.95;3.13;;;;;;;;;;5075672;28;20088;-64
2021/06/15 03:26:26;;;;;;;6.18;3.92;;;;;;;;;;5075472;28;20017;-64
2021/06/15 03:28:55;;;;;;;5.68;3.53;;;;;;;;;;5072514;28;20039;-64
2021/06/15 03:31:21;;;;;;;5.18;3.67;;;;;;;;;;5073987;28;20020;-64
2021/06/15 03:33:48;;;;;;;4.57;3.55;;;;;;;;;;5076088;28;20155;-64
2021/06/15 03:36:14;;;;;;;5.20;3.88;;;;;;;;;;5096389;28;20099;-64
2021/06/15 03:38:40;;;;;;;5.88;3.67;;;;;;;;;;5089398;28;20099;-64
2021/06/15 03:41:08;;;;;;;4.32;3.92;;;;;;;;;;5088197;28;20194;-64
2021/06/15 03:43:35;;;;;;;6.47;4.40;;;;;;;;;;5075272;28;20043;-64
2021/06/15 03:46:08;;;;;;;5.38;4.15;;;;;;;;;;5074248;28;20028;-64
2021/06/15 03:48:35;;;;;;;5.75;4.45;;;;;;;;;;5072226;28;20513;-64
2021/06/15 03:51:01;;;;;;;5.72;4.85;;;;;;;;;;5075102;28;20036;-64
2021/06/15 03:53:29;;;;;;;5.05;4.38;;;;;;;;;;5107834;28;20495;-64
2021/06/15 03:55:55;;;;;;;5.32;4.60;;;;;;;;;;5075249;28;20361;-64
2021/06/15 03:58:20;;;;;;;5.25;4.28;;;;;;;;;;5071146;28;20069;-64
2021/06/15 04:00:48;;;;;;;5.47;4.38;;;;;;;;;;5073536;28;20475;-64
2021/06/15 04:03:15;;;;;;;5.88;4.38;;;;;;;;;;5073872;28;20479;-64
2021/06/15 04:05:41;;;;;;;5.97;4.35;;;;;;;;;;5073591;28;20392;-64
2021/06/15 04:08:07;;;;;;;5.57;4.13;;;;;;;;;;5072127;28;20027;-64
2021/06/15 04:10:33;;;;;;;9.55;4.82;;;;;;;;;;5074618;28;20035;-64
2021/06/15 04:13:01;;;;;;;5.43;3.63;;;;;;;;;;5074078;28;20013;-64
2021/06/15 04:15:26;;;;;;;6.70;4.68;;;;;;;;;;5073755;28;20047;-64
2021/06/15 04:17:52;;;;;;;8.02;4.63;;;;;;;;;;5072136;28;20048;-64
2021/06/15 04:20:32;;;;;;;7.50;4.30;;;;;;;;;;5072797;28;20100;-64
2021/06/15 04:23:01;;;;;;;5.20;4.40;;;;;;;;;;5060430;28;20031;-64
2021/06/15 04:25:28;;;;;;;8.20;4.78;;;;;;;;;;5073530;28;20050;-64
2021/06/15 04:27:54;;;;;;;7.38;4.75;;;;;;;;;;5070064;28;20111;-64
2021/06/15 04:30:20;;;;;;;6.13;4.72;;;;;;;;;;5107072;28;20111;-64
2021/06/15 04:32:50;;;;;;;7.03;5.05;;;;;;;;;;5074269;28;20480;-64
2021/06/15 04:35:20;;;;;;;4.78;4.38;;;;;;;;;;5074716;28;20194;-64
2021/06/15 04:37:46;;;;;;;6.57;4.72;;;;;;;;;;5071010;28;20025;-64
2021/06/15 04:40:17;;;;;;;6.07;4.30;;;;;;;;;;5073708;28;20519;-64
2021/06/15 04:42:46;;;;;;;7.95;4.80;;;;;;;;;;5073604;28;21357;-64
2021/06/15 04:45:11;;;;;;;5.93;4.18;;;;;;;;;;5074220;28;20480;-64
2021/06/15 04:47:39;;;;;;;7.97;4.28;;;;;;;;;;5069811;28;20057;-64
2021/06/15 04:50:23;;;;;;;6.15;4.10;;;;;;;;;;5072321;28;20020;-63
2021/06/15 04:52:50;;;;;;;7.55;4.45;;;;;;;;;;5081447;28;20008;-64
2021/06/15 04:55:16;;;;;;;7.18;4.43;;;;;;;;;;5094422;28;20012;-64
2021/06/15 04:57:44;;;;;;;5.75;3.75;;;;;;;;;;5076472;28;20021;-64
2021/06/15 05:00:09;;;;;;;6.32;4.53;;;;;;;;;;5073563;28;20492;-64
2021/06/15 05:02:37;;;;;;;4.90;3.42;;;;;;;;;;5068308;28;20021;-64
2021/06/15 05:05:03;;;;;;;5.75;4.03;;;;;;;;;;5084383;28;20037;-64
2021/06/15 05:07:28;;;;;;;9.40;3.78;;;;;;;;;;5066258;28;20384;-64
2021/06/15 05:09:55;;;;;;;10.43;3.85;;;;;;;;;;5060610;28;20021;-64
2021/06/15 05:12:21;;;;;;;5.90;3.50;;;;;;;;;;5066281;28;20021;-65
2021/06/15 05:14:47;;;;;;;9.55;3.63;;;;;;;;;;5105899;28;20025;-65
2021/06/15 05:17:13;;;;;;;5.68;3.13;;;;;;;;;;5070478;28;20112;-65
2021/06/15 05:19:41;;;;;;;5.32;3.13;;;;;;;;;;5073055;28;20025;-64
2021/06/15 05:22:09;;;;;;;5.13;3.10;;;;;;;;;;5056253;28;20029;-64
2021/06/15 05:25:02;;;;;;;9.25;3.83;;;;;;;;;;5073283;28;20357;-65
2021/06/15 05:27:31;;;;;;;9.13;4.30;;;;;;;;;;5067886;28;20033;-65
2021/06/15 05:29:57;;;;;;;6.40;3.92;;;;;;;;;;5067101;28;20116;-65
2021/06/15 05:32:22;;;;;;;6.47;4.38;;;;;;;;;;5071046;28;20551;-65
2021/06/15 05:34:48;;;;;;;8.75;4.53;;;;;;;;;;5077675;28;20070;-65
2021/06/15 05:37:14;;;;;;;9.23;4.63;;;;;;;;;;5069345;28;20292;-65
2021/06/15 05:39:39;;;;;;;9.60;5.07;;;;;;;;;;5076676;28;20073;-65
2021/06/15 05:42:05;;;;;;;11.88;4.32;;;;;;;;;;5069425;28;20040;-65
2021/06/15 05:44:31;;;;;;;10.57;4.72;;;;;;;;;;5072421;28;20074;-65
2021/06/15 05:46:56;;;;;;;7.15;4.40;;;;;;;;;;5069374;28;20319;-64
2021/06/15 05:49:21;;;;;;;9.75;4.30;;;;;;;;;;5098403;28;20029;-65
2021/06/15 05:51:47;;;;;;;10.00;4.22;;;;;;;;;;5105118;28;20100;-65
2021/06/15 05:54:12;;;;;;;12.70;4.53;;;;;;;;;;5073490;28;20024;-65
2021/06/15 05:56:38;;;;;;;8.18;3.97;;;;;;;;;;5071348;28;20099;-64
2021/06/15 05:59:03;;;;;;;9.38;3.83;;;;;;;;;;5051494;28;20062;-65
2021/06/15 06:01:28;;;;;;;7.32;3.60;;;;;;;;;;5052662;28;20025;-65
2021/06/15 06:09:06;;;;;;;5.03;3.38;;;;;;;;;;5071491;28;20078;-65
2021/06/15 06:11:31;;;;;;;5.63;2.88;;;;;;;;;;5104571;28;20502;-65
2021/06/15 06:13:56;;;;;;;6.10;3.20;;;;;;;;;;5072868;28;20016;-65
2021/06/15 06:16:22;;;;;;;3.83;2.38;;;;;;;;;;5070068;28;20020;-65
2021/06/15 06:18:47;;;;;;;5.15;2.80;;;;;;;;;;5064330;28;20017;-65
2021/06/15 06:21:12;;;;;;;5.07;2.28;;;;;;;;;;5072236;28;20028;-65
2021/06/15 06:23:38;;;;;;;5.50;2.33;;;;;;;;;;5073361;28;20027;-65
2021/06/15 06:26:03;;;;;;;3.67;2.30;;;;;;;;;;5072350;28;20039;-65
2021/06/15 06:28:29;;;;;;;6.18;2.20;;;;;;;;;;5067689;28;20160;-65
2021/06/15 06:30:54;;;;;;;4.97;1.85;;;;;;;;;;5071837;28;20399;-65
2021/06/15 06:33:19;;;;;;;5.50;2.10;;;;;;;;;;5072236;28;20472;-65
2021/06/15 06:35:44;;;;;;;3.92;1.60;;;;;;;;;;5070816;28;20515;-66
2021/06/15 06:38:10;;;;;;;4.90;1.92;;;;;;;;;;5068809;28;20069;-65
2021/06/15 06:40:35;;;;;;;4.57;1.80;;;;;;;;;;5073641;28;20040;-65
2021/06/15 06:43:00;;;;;;;3.83;1.65;;;;;;;;;;5070937;28;20074;-65
2021/06/15 06:45:26;;;;;;;2.15;1.58;;;;;;;;;;5101000;28;20056;-66
2021/06/15 06:47:51;;;;;;;4.55;1.52;;;;;;;;;;5062460;28;20474;-65
2021/06/15 06:50:16;;;;;;;3.70;1.30;;;;;;;;;;5070751;28;20490;-65
2021/06/15 06:52:41;;;;;;;3.47;1.40;;;;;;;;;;5058490;28;20468;-65
2021/06/15 06:55:07;;;;;;;3.72;1.42;;;;;;;;;;5071918;28;20052;-65
2021/06/15 06:57:32;;;;;;;4.13;1.67;;;;;;;;;;5100937;28;20529;-65
2021/06/15 06:59:57;;;;;;;4.47;1.40;;;;;;;;;;5104510;28;20029;-65
2021/06/15 07:02:23;;;;;;;3.65;1.65;;;;;;;;;;5070618;28;20027;-65
2021/06/15 07:04:48;;;;;;;3.00;1.40;;;;;;;;;;5070649;28;20023;-65
2021/06/15 07:07:13;;;;;;;5.50;1.70;;;;;;;;;;5066971;28;20153;-66
2021/06/15 07:09:38;;;;;;;4.60;1.52;;;;;;;;;;5081361;28;20030;-66
2021/06/15 07:12:04;;;;;;;4.63;1.20;;;;;;;;;;5071867;28;20017;-66
2021/06/15 07:14:29;;;;;;;3.10;1.27;;;;;;;;;;5122876;28;20016;-66
2021/06/15 07:16:54;;;;;;;4.97;1.33;;;;;;;;;;5083469;28;20439;-66
2021/06/15 07:19:20;;;;;;;3.92;1.65;;;;;;;;;;5070628;28;20104;-66
2021/06/15 07:21:45;;;;;;;3.50;1.20;;;;;;;;;;5079768;28;20024;-66
2021/06/15 07:24:10;;;;;;;2.60;1.47;;;;;;;;;;5070562;28;20078;-66
2021/06/15 07:26:35;;;;;;;6.45;1.90;;;;;;;;;;5070593;28;20255;-65
2021/06/15 07:29:01;;;;;;;3.92;1.42;;;;;;;;;;5069173;28;20024;-66
2021/06/15 07:31:27;;;;;;;2.75;1.08;;;;;;;;;;5067529;28;20021;-66
2021/06/15 07:33:52;;;;;;;2.08;1.30;;;;;;;;;;5071520;28;20023;-65
2021/06/15 07:36:17;;;;;;;4.15;1.55;;;;;;;;;;5069924;28;20008;-66
2021/06/15 07:38:42;;;;;;;2.70;1.30;;;;;;;;;;5066647;28;20016;-66
2021/06/15 07:41:08;;;;;;;4.22;1.40;;;;;;;;;;5069407;28;20406;-66
2021/06/15 07:43:33;;;;;;;3.00;1.13;;;;;;;;;;5071169;28;20433;-66
2021/06/15 07:45:58;;;;;;;2.20;1.08;;;;;;;;;;5071520;28;20127;-66
2021/06/15 07:48:23;;;;;;;2.70;1.23;;;;;;;;;;5068496;28;20023;-66
2021/06/15 07:50:49;;;;;;;3.15;1.50;;;;;;;;;;5070918;28;20013;-66
2021/06/15 07:53:14;;;;;;;3.75;1.60;;;;;;;;;;5071022;28;20490;-65
2021/06/15 07:55:39;;;;;;;2.75;1.40;;;;;;;;;;5070128;28;20016;-65
2021/06/15 07:58:05;;;;;;;4.47;1.30;;;;;;;;;;5058464;28;20020;-65
2021/06/15 08:00:31;;;;;;;3.33;1.30;;;;;;;;;;5072123;28;20013;-65
2021/06/15 08:02:56;;;;;;;3.85;1.25;;;;;;;;;;5075474;28;20066;-65
2021/06/15 08:05:22;;;;;;;4.35;1.02;;;;;;;;;;5073635;28;20353;-66
2021/06/15 08:07:51;;;;;;;2.83;1.00;;;;;;;;;;5071519;28;20099;-66
2021/06/15 08:10:19;;;;;;;3.75;1.10;;;;;;;;;;5074830;28;20048;-66
2021/06/15 08:12:44;;;;;;;4.43;1.20;;;;;;;;;;5074144;28;20096;-66
2021/06/15 08:15:09;;;;;;;3.13;1.23;;;;;;;;;;5056032;28;20104;-66
2021/06/15 08:17:35;;;;;;;3.08;1.00;;;;;;;;;;5053644;28;20028;-66
2021/06/15 08:20:00;;;;;;;4.80;1.23;;;;;;;;;;5074444;28;20498;-66
2021/06/15 08:22:26;;;;;;;6.57;1.30;;;;;;;;;;5075144;28;20016;-66
2021/06/15 08:24:51;;;;;;;6.47;1.52;;;;;;;;;;5074265;28;20033;-66
2021/06/15 08:27:16;;;;;;;4.72;1.08;;;;;;;;;;5070853;28;20484;-64
2021/06/15 08:29:41;;;;;;;3.92;1.10;;;;;;;;;;5106456;28;20035;-64
2021/06/15 08:32:07;;;;;;;5.00;1.40;;;;;;;;;;5087751;28;20366;-65
2021/06/15 08:34:34;;;;;;;4.07;1.20;;;;;;;;;;5067863;28;20324;-65
2021/06/15 08:37:00;;;;;;;4.95;1.20;;;;;;;;;;5079953;28;20012;-66
2021/06/15 08:39:25;;;;;;;3.58;0.80;;;;;;;;;;5106536;28;20012;-65
2021/06/15 08:41:50;;;;;;;3.20;0.82;;;;;;;;;;5072196;28;20111;-66
2021/06/15 08:44:16;;;;;;;3.53;1.10;;;;;;;;;;5074116;28;20476;-65
2021/06/15 08:46:41;;;;;;;3.65;1.02;;;;;;;;;;5072361;28;20380;-66
2021/06/15 08:49:06;;;;;;;2.83;0.95;;;;;;;;;;5066008;28;20099;-66
2021/06/15 08:51:33;;;;;;;3.33;1.10;;;;;;;;;;5069365;28;20028;-66
2021/06/15 08:54:04;;;;;;;3.60;1.13;;;;;;;;;;5074003;28;20020;-66
2021/06/15 08:56:32;;;;;;;3.70;1.13;;;;;;;;;;5073388;28;20023;-65
2021/06/15 08:59:06;;;;;;;4.15;1.42;;;;;;;;;;5105452;27;20024;-65
2021/06/15 09:01:31;;;;;;;3.85;1.10;;;;;;;;;;5069862;28;20029;-65
2021/06/15 09:03:57;;;;;;;3.57;1.90;;;;;;;;;;5053055;28;20032;-65
2021/06/15 09:06:22;;;;;;;1.95;1.00;;;;;;;;;;5071259;28;20266;-65
2021/06/15 09:08:54;;;;;;;2.20;1.00;;;;;;;;;;5068233;28;20067;-65
2021/06/15 09:11:20;;;;;;;2.95;1.00;;;;;;;;;;5081425;28;20020;-65
2021/06/15 09:13:47;;;;;;;1.98;0.95;;;;;;;;;;5111221;27;20023;-65
2021/06/15 09:16:18;;;;;;;4.53;1.15;;;;;;;;;;5078359;28;20025;-65
2021/06/15 09:18:44;;;;;;;2.05;0.98;;;;;;;;;;5070363;28;20016;-65
2021/06/15 09:21:09;;;;;;;2.58;0.98;;;;;;;;;;5075659;28;20037;-65
2021/06/15 09:23:36;;;;;;;1.73;1.07;;;;;;;;;;5073004;28;20047;-66
2021/06/15 09:26:02;;;;;;;1.75;0.80;;;;;;;;;;5072955;28;20263;-66
2021/06/15 09:28:28;;;;;;;4.63;1.23;;;;;;;;;;5074086;28;20102;-66
2021/06/15 09:30:59;;;;;;;3.45;1.23;;;;;;;;;;5082890;28;20486;-66
2021/06/15 09:33:41;;;;;;;5.50;0.90;;;;;;;;;;5066978;28;20445;-66
2021/06/15 09:36:07;;;;;;;1.58;0.65;;;;;;;;;;5090929;28;20124;-66
2021/06/15 09:38:34;;;;;;;2.17;0.70;;;;;;;;;;5076751;28;20528;-66
2021/06/15 09:40:59;;;;;;;3.03;0.95;;;;;;;;;;5084323;28;20056;-65
2021/06/15 09:43:24;;;;;;;2.42;0.90;;;;;;;;;;5074529;28;20440;-65
2021/06/15 09:45:49;;;;;;;2.40;1.15;;;;;;;;;;5079688;28;20011;-67
2021/06/15 09:48:22;;;;;;;3.05;0.85;;;;;;;;;;5083141;28;20028;-67
2021/06/15 09:50:47;;;;;;;3.00;1.25;;;;;;;;;;5080259;28;20013;-67
2021/06/15 09:53:24;;;;;;;3.35;0.98;;;;;;;;;;5069759;28;20502;-66
2021/06/15 09:55:49;;;;;;;1.95;1.00;;;;;;;;;;5076036;28;20020;-66
2021/06/15 09:58:16;;;;;;;1.95;0.95;;;;;;;;;;5069512;28;20017;-66
2021/06/15 10:00:41;;;;;;;3.35;1.58;;;;;;;;;;5071567;28;20043;-67
2021/06/15 10:03:14;;;;;;;3.53;1.40;;;;;;;;;;5070658;28;20472;-67
2021/06/15 10:05:39;;;;;;;3.15;1.05;;;;;;;;;;5071096;28;20440;-67
2021/06/15 10:08:06;;;;;;;3.00;1.13;;;;;;;;;;5071153;28;20104;-66
2021/06/15 10:10:35;;;;;;;1.95;1.25;;;;;;;;;;5076008;28;20285;-66
2021/06/15 10:13:00;;;;;;;2.88;1.38;;;;;;;;;;5059674;28;20021;-66
2021/06/15 10:15:27;;;;;;;2.58;1.13;;;;;;;;;;5067932;28;20024;-66
2021/06/15 10:17:53;;;;;;;2.08;0.93;;;;;;;;;;5069259;28;20101;-68
2021/06/15 10:20:22;;;;;;;1.80;1.23;;;;;;;;;;5079944;28;20063;-67
2021/06/15 10:22:48;;;;;;;3.13;1.15;;;;;;;;;;5083701;28;20108;-67
2021/06/15 10:25:14;;;;;;;4.50;1.17;;;;;;;;;;5070399;28;20056;-67
2021/06/15 10:27:39;;;;;;;2.70;0.90;;;;;;;;;;5101073;28;20492;-65
2021/06/15 10:30:05;;;;;;;2.13;1.10;;;;;;;;;;5060270;28;20025;-66
2021/06/15 10:32:31;;;;;;;3.10;1.10;;;;;;;;;;5069154;28;20426;-65
2021/06/15 10:34:58;;;;;;;2.97;1.17;;;;;;;;;;5077577;28;20024;-66
2021/06/15 10:37:36;;;;;;;2.63;1.15;;;;;;;;;;5069128;28;20020;-65
2021/06/15 10:40:17;;;;;;;1.70;0.82;;;;;;;;;;5071687;28;20070;-65
2021/06/15 10:42:42;;;;;;;4.28;1.13;;;;;;;;;;5072023;28;20056;-65
2021/06/15 10:45:16;;;;;;;5.03;1.33;;;;;;;;;;5073985;28;20105;-65
2021/06/15 10:48:00;;;;;;;4.25;1.13;;;;;;;;;;5066258;28;20362;-66
2021/06/15 10:50:38;;;;;;;1.70;1.02;;;;;;;;;;5091276;28;20175;-65
2021/06/15 10:53:04;;;;;;;3.17;1.40;;;;;;;;;;5063543;28;20020;-65
2021/06/15 10:55:39;;;;;;;3.25;0.90;;;;;;;;;;5104461;28;20017;-65
2021/06/15 10:58:04;;;;;;;4.60;1.00;;;;;;;;;;5068634;28;20085;-65
2021/06/15 11:00:29;;;;;;;3.30;0.98;;;;;;;;;;5067091;28;20021;-65
2021/06/15 11:03:18;;;;;;;2.83;0.97;;;;;;;;;;5057776;28;20032;-65
2021/06/15 11:05:45;;;;;;;2.40;1.20;;;;;;;;;;5073941;28;20055;-65
2021/06/15 11:08:18;;;;;;;3.33;1.17;;;;;;;;;;5068282;28;20077;-65
2021/06/15 11:10:56;;;;;;;1.80;1.00;;;;;;;;;;5071137;28;20115;-65
2021/06/15 11:13:37;;;;;;;4.72;1.10;;;;;;;;;;5069470;28;20052;-64
2021/06/15 11:16:02;;;;;;;1.40;0.77;;;;;;;;;;5070928;28;20550;-64
2021/06/15 11:18:27;;;;;;;3.57;1.40;;;;;;;;;;5068371;28;20028;-65
2021/06/15 11:20:54;;;;;;;1.83;0.90;;;;;;;;;;5062893;28;20782;-64
2021/06/15 11:23:24;;;;;;;1.27;0.90;;;;;;;;;;5061940;28;20017;-65
2021/06/15 11:25:50;;;;;;;0.90;0.73;;;;;;;;;;5069828;28;20027;-66
2021/06/15 11:28:33;;;;;;;1.48;1.00;;;;;;;;;;5069396;28;20456;-66
2021/06/15 11:31:17;;;;;;;1.60;0.98;;;;;;;;;;5061444;28;20086;-66
2021/06/15 11:34:01;;;;;;;2.00;0.95;;;;;;;;;;5077517;28;20024;-66
2021/06/15 11:36:46;;;;;;;1.73;1.27;;;;;;;;;;5054733;28;20040;-66
2021/06/15 11:39:30;;;;;;;2.33;1.20;;;;;;;;;;5063868;28;20024;-66
2021/06/15 11:42:08;;;;;;;3.65;1.33;;;;;;;;;;5072981;28;20041;-66
2021/06/15 11:44:51;;;;;;;2.35;1.30;;;;;;;;;;5126317;27;20418;-66
2021/06/15 11:47:22;;;;;;;4.30;1.42;;;;;;;;;;5054457;28;20441;-64
2021/06/15 11:50:05;;;;;;;3.25;1.35;;;;;;;;;;5074854;28;20055;-65
2021/06/15 11:52:31;;;;;;;3.08;1.08;;;;;;;;;;5054018;28;20108;-65
2021/06/15 11:54:57;;;;;;;3.08;0.95;;;;;;;;;;5100511;27;20490;-65
2021/06/15 11:57:22;;;;;;;2.08;0.93;;;;;;;;;;5078864;28;20028;-65
2021/06/15 11:59:47;;;;;;;2.90;0.90;;;;;;;;;;5077769;28;20047;-65
2021/06/15 12:02:16;;;;;;;2.23;1.10;;;;;;;;;;5073387;28;20028;-65
2021/06/15 12:04:42;;;;;;;1.70;1.08;;;;;;;;;;5073446;28;20031;-65
2021/06/15 12:07:17;;;;;;;3.57;1.27;;;;;;;;;;5069823;28;20427;-65
2021/06/15 12:10:05;;;;;;;3.60;1.20;;;;;;;;;;5074332;28;20024;-65
2021/06/15 12:12:30;;;;;;;2.92;1.00;;;;;;;;;;5104898;28;20027;-65
2021/06/15 12:14:55;;;;;;;4.03;0.80;;;;;;;;;;5062025;28;20016;-65
2021/06/15 12:17:21;;;;;;;1.83;0.83;;;;;;;;;;5071487;28;20021;-65
2021/06/15 12:19:46;;;;;;;1.73;0.98;;;;;;;;;;5074622;28;20324;-65
2021/06/15 12:22:14;;;;;;;3.27;1.10;;;;;;;;;;5074594;28;20029;-65
2021/06/15 12:24:43;;;;;;;2.78;1.25;;;;;;;;;;5074373;28;20528;-65
2021/06/15 12:27:18;;;;;;;2.28;1.02;;;;;;;;;;5052639;28;20028;-66
2021/06/15 12:29:43;;;;;;;2.30;1.27;;;;;;;;;;5096967;28;20054;-66
2021/06/15 12:32:08;;;;;;;1.57;0.90;;;;;;;;;;5074332;28;20067;-65
2021/06/15 12:34:33;;;;;;;1.57;1.10;;;;;;;;;;5078082;28;20034;-64
2021/06/15 12:37:03;;;;;;;1.77;1.40;;;;;;;;;;5071535;28;20275;-65
2021/06/15 12:39:29;;;;;;;3.45;1.05;;;;;;;;;;5074001;28;20021;-65
2021/06/15 12:42:00;;;;;;;1.92;0.90;;;;;;;;;;5106337;28;20455;-65
2021/06/15 12:44:25;;;;;;;3.88;1.25;;;;;;;;;;5083566;28;20016;-65
2021/06/15 12:46:57;;;;;;;4.00;1.23;;;;;;;;;;5055064;28;20511;-65
2021/06/15 12:49:23;;;;;;;3.03;1.02;;;;;;;;;;5069107;28;20111;-65
2021/06/15 12:51:52;;;;;;;1.85;1.30;;;;;;;;;;5073865;28;20567;-65
2021/06/15 12:54:28;;;;;;;3.40;1.40;;;;;;;;;;5074050;28;20024;-67
2021/06/15 12:56:58;;;;;;;4.30;1.25;;;;;;;;;;5071208;28;20319;-65
2021/06/15 12:59:24;;;;;;;2.50;1.13;;;;;;;;;;5073438;28;20020;-68
2021/06/15 13:01:49;;;;;;;3.92;1.10;;;;;;;;;;5073920;28;20024;-67
2021/06/15 13:04:15;;;;;;;2.65;1.40;;;;;;;;;;5111794;27;20012;-68
2021/06/15 13:06:40;;;;;;;1.90;1.17;;;;;;;;;;5078740;28;20035;-67
2021/06/15 13:09:15;;;;;;;1.97;1.33;;;;;;;;;;5074153;28;20024;-68
2021/06/15 13:12:01;;;;;;;6.38;1.50;;;;;;;;;;5073105;28;20012;-68
2021/06/15 13:14:31;;;;;;;3.63;1.30;;;;;;;;;;5080193;28;20567;-67
2021/06/15 13:17:03;;;;;;;4.40;1.58;;;;;;;;;;5070046;28;20511;-67
2021/06/15 13:19:39;;;;;;;2.40;1.00;;;;;;;;;;5070329;28;20023;-67
2021/06/15 13:22:05;;;;;;;4.40;1.20;;;;;;;;;;5072697;28;20104;-67
2021/06/15 13:24:35;;;;;;;2.47;1.50;;;;;;;;;;5073624;28;20083;-67
2021/06/15 13:27:19;;;;;;;4.18;1.50;;;;;;;;;;5070525;28;20040;-68
2021/06/15 13:29:44;;;;;;;2.55;1.27;;;;;;;;;;5075050;28;20069;-68
2021/06/15 13:32:20;;;;;;;3.20;1.40;;;;;;;;;;5084140;28;20017;-66
2021/06/15 13:34:57;;;;;;;2.97;1.42;;;;;;;;;;5075918;28;20024;-66
2021/06/15 13:37:26;;;;;;;2.83;1.23;;;;;;;;;;5064195;28;20017;-67
2021/06/15 13:39:52;;;;;;;3.22;1.40;;;;;;;;;;5072746;28;20056;-66
2021/06/15 13:42:22;;;;;;;2.70;1.30;;;;;;;;;;5071639;28;20076;-67
2021/06/15 13:44:59;;;;;;;5.30;1.40;;;;;;;;;;5073824;28;20351;-67
2021/06/15 13:47:24;;;;;;;3.17;1.48;;;;;;;;;;5069199;28;20028;-66
2021/06/15 13:49:49;;;;;;;2.20;1.43;;;;;;;;;;5072857;28;20025;-66
2021/06/15 13:52:14;;;;;;;2.63;1.57;;;;;;;;;;5072976;28;20021;-66
2021/06/15 13:54:40;;;;;;;3.57;1.40;;;;;;;;;;5071394;28;20423;-66
2021/06/15 13:57:05;;;;;;;3.50;1.73;;;;;;;;;;5065528;28;20274;-65
2021/06/15 13:59:30;;;;;;;5.60;1.92;;;;;;;;;;5073508;28;20320;-65
2021/06/15 14:01:55;;;;;;;5.37;2.20;;;;;;;;;;5072694;28;20353;-67
2021/06/15 14:04:21;;;;;;;2.80;1.73;;;;;;;;;;5074626;28;20259;-66
2021/06/15 14:06:47;;;;;;;5.83;1.80;;;;;;;;;;5069574;28;20024;-66
2021/06/15 14:09:12;;;;;;;3.38;2.05;;;;;;;;;;5072033;28;20043;-66
2021/06/15 14:11:38;;;;;;;2.80;1.30;;;;;;;;;;5072069;28;20464;-66
2021/06/15 14:14:04;;;;;;;3.53;1.70;;;;;;;;;;5070583;28;20017;-67
2021/06/15 14:16:29;;;;;;;3.73;1.30;;;;;;;;;;5068547;28;20165;-66
2021/06/15 14:18:54;;;;;;;4.10;1.70;;;;;;;;;;5070114;28;20052;-67
2021/06/15 14:21:20;;;;;;;3.67;1.50;;;;;;;;;;5071149;28;20021;-66
2021/06/15 14:23:45;;;;;;;2.67;1.67;;;;;;;;;;5071015;28;20824;-67
2021/06/15 14:26:10;;;;;;;2.37;1.60;;;;;;;;;;5067933;28;20048;-66
2021/06/15 14:28:36;;;;;;;3.27;1.40;;;;;;;;;;5066069;28;20410;-66
2021/06/15 14:31:02;;;;;;;4.15;1.70;;;;;;;;;;5073890;28;20353;-66
2021/06/15 14:33:27;;;;;;;3.60;1.70;;;;;;;;;;5070409;28;20017;-67
2021/06/15 14:35:52;;;;;;;2.67;1.83;;;;;;;;;;5072251;28;20460;-67
2021/06/15 14:38:18;;;;;;;2.33;1.50;;;;;;;;;;5069145;28;20517;-66
2021/06/15 14:40:43;;;;;;;2.67;1.98;;;;;;;;;;5069970;28;20657;-66
2021/06/15 14:43:09;;;;;;;2.72;1.42;;;;;;;;;;5070861;28;20375;-66
2021/06/15 14:45:34;;;;;;;4.85;1.75;;;;;;;;;;5070508;28;20025;-66
2021/06/15 14:47:59;;;;;;;3.70;1.75;;;;;;;;;;5068707;28;20024;-67
2021/06/15 14:50:25;;;;;;;3.07;2.00;;;;;;;;;;5072063;28;20016;-66
2021/06/15 14:52:50;;;;;;;4.60;2.22;;;;;;;;;;5071803;28;20247;-66